This is the latest recevied weather packets stored in our database for station/object W5HKR. If no packets are shown the sender has not sent any weather packets the latest 10 day(s).
| Time | Temp. | Humidity | Pressure | Rain* | Wind** | Luminosity | Snow |
|---|---|---|---|---|---|---|---|
| 1777925658 | 26.67° C | 62% | 983.9 hPa | 0 mm | - | - | - |
| 1777925658 | 26.67° C | 61% | 984 hPa | 0 mm | - | - | - |
| 1777925658 | 27.22° C | 61% | 983.6 hPa | 0 mm | - | - | - |
| 1777925608 | 18.33° C | 91% | 990.6 hPa | 0 mm | - | - | - |
| 1777925308 | 26.67° C | 63% | 983.6 hPa | 0 mm | - | - | - |
| 1777925008 | 26.67° C | 62% | 983.7 hPa | 0 mm | - | - | - |
| 1777924680 | 26.67° C | 61% | 984 hPa | 0 mm | - | - | - |
| 1777924408 | 26.67° C | 62% | 983.9 hPa | 0 mm | - | - | - |
| 1777924108 | 27.22° C | 61% | 983.6 hPa | 0 mm | - | - | - |
| 1777923807 | 18.33° C | 91% | 990.6 hPa | 0 mm | - | - | - |
| 1777923598 | 27.78° C | 60% | 983.9 hPa | 0 mm | - | - | - |
| 1777923509 | 18.33° C | 91% | 990.6 hPa | 0 mm | - | - | - |
| 1777923207 | 27.78° C | 60% | 983.7 hPa | 0 mm | - | - | - |
| 1777922910 | 27.78° C | 61% | 984 hPa | 0 mm | - | - | - |
| 1777922608 | 18.33° C | 91% | 990.6 hPa | 0 mm | - | - | - |
| 1777922518 | 18.33° C | 91% | 990.6 hPa | 0 mm | - | - | - |
| 1777922307 | 27.22° C | 62% | 984.4 hPa | 0 mm | - | - | - |
| 1777922008 | 18.33° C | 91% | 990.6 hPa | 0 mm | - | - | - |
| 1777921709 | 18.33° C | 91% | 990.6 hPa | 0 mm | - | - | - |
| 1777921439 | 18.33° C | 91% | 990.6 hPa | 0 mm | - | - | - |
| 1777921407 | 27.78° C | 61% | 984.3 hPa | 0 mm | - | - | - |
| 1777920808 | 18.33° C | 91% | 990.6 hPa | 0 mm | - | - | - |
| 1777920509 | 18.33° C | 91% | 990.6 hPa | 0 mm | - | - | - |
| 1777920359 | 18.33° C | 91% | 990.6 hPa | 0 mm | - | - | - |
| 1777920208 | 18.33° C | 91% | 990.6 hPa | 0 mm | - | - | - |
* Rain latest hour (hover to see other rain measurements)
** Current wind speed in m/s (hover to see current wind gust speed)